Time;durP1;ratioP1;P1;durP2;ratioP2;P2;SDS_P1;SDS_P2;PMS_P1;PMS_P2;Temp;Humidity;BMP_temperature;BMP_pressure;BME280_temperature;BME280_humidity;BME280_pressure;Samples;Min_cycle;Max_cycle;Signal;HPM_P1;HPM_P2
2023/03/20 00:00:35;;;;;;;32.22;15.43;;;;;;;7.30;56.27;95579.06;5032662;28;20542;-77
2023/03/20 00:03:01;;;;;;;39.28;16.42;;;;;;;7.05;56.50;95539.13;5032965;28;20407;-77
2023/03/20 00:05:28;;;;;;;35.72;15.63;;;;;;;6.18;56.72;95406.09;5014503;28;20040;-77
2023/03/20 00:07:54;;;;;;;39.28;16.35;;;;;;;7.05;57.21;95558.41;5033056;28;20046;-76
2023/03/20 00:10:24;;;;;;;37.33;16.23;;;;;;;6.95;57.02;95545.06;5014226;28;20440;-77
2023/03/20 00:12:50;;;;;;;39.22;15.68;;;;;;;6.67;57.24;95495.88;5032681;28;20068;-77
2023/03/20 00:15:45;;;;;;;34.92;16.65;;;;;;;6.98;57.49;95571.75;5014158;28;20120;-77
2023/03/20 00:18:17;;;;;;;40.92;16.58;;;;;;;6.89;57.60;95570.56;5022634;28;20048;-77
2023/03/20 00:20:46;;;;;;;44.67;17.42;;;;;;;6.43;57.92;95495.25;5031219;28;20651;-77
2023/03/20 00:23:12;;;;;;;45.95;16.17;;;;;;;6.67;57.89;95527.50;5032455;28;20060;-77
2023/03/20 00:25:39;;;;;;;45.42;18.48;;;;;;;6.19;57.92;95460.34;5032215;28;20443;-77
2023/03/20 00:28:37;;;;;;;43.88;18.75;;;;;;;6.27;57.83;95469.69;5031793;28;20037;-77
2023/03/20 00:31:05;;;;;;;40.53;18.10;;;;;;;6.92;58.15;95558.75;5031841;28;20033;-77
2023/03/20 00:33:31;;;;;;;43.17;19.70;;;;;;;6.84;58.27;95556.50;5014220;28;20036;-77
2023/03/20 00:35:57;;;;;;;44.00;20.02;;;;;;;6.70;58.12;95540.22;5031516;28;20136;-77
2023/03/20 00:38:23;;;;;;;41.95;19.65;;;;;;;6.85;58.11;95558.09;5013589;28;20127;-77
2023/03/20 00:40:49;;;;;;;46.25;19.65;;;;;;;6.63;57.95;95513.22;5031857;28;20129;-77
2023/03/20 00:43:15;;;;;;;47.08;21.05;;;;;;;6.69;58.05;95530.72;5032073;28;20456;-77
2023/03/20 00:45:44;;;;;;;41.17;19.30;;;;;;;6.28;58.04;95458.13;5031860;28;20033;-77
2023/03/20 00:48:13;;;;;;;50.03;21.02;;;;;;;6.74;58.42;95556.34;5031135;28;20037;-77
2023/03/20 00:50:38;;;;;;;49.80;21.00;;;;;;;6.69;58.67;95556.25;5030380;28;20029;-77
2023/03/20 00:53:05;;;;;;;50.03;20.27;;;;;;;6.68;58.78;95558.09;5013605;28;20128;-77
2023/03/20 00:55:30;;;;;;;44.80;20.40;;;;;;;6.15;58.76;95476.88;5030055;28;20049;-77
2023/03/20 00:57:59;;;;;;;46.72;18.98;;;;;;;6.66;58.76;95551.47;5013224;28;20472;-77
2023/03/20 01:00:44;;;;;;;53.50;20.38;;;;;;;6.29;59.00;95498.44;5013582;28;20041;-78
2023/03/20 01:03:17;;;;;;;58.67;20.55;;;;;;;6.17;59.12;95480.88;5030164;28;20038;-78
2023/03/20 01:05:44;;;;;;;53.80;22.05;;;;;;;6.61;59.03;95541.66;5030861;28;20464;-78
2023/03/20 01:08:16;;;;;;;50.55;19.67;;;;;;;6.22;59.08;95495.16;5031158;28;20116;-78
2023/03/20 01:10:44;;;;;;;49.30;20.45;;;;;;;6.40;59.91;95543.16;5030998;28;20059;-78
2023/03/20 01:13:19;;;;;;;49.30;21.60;;;;;;;6.48;59.59;95539.34;5031507;28;20047;-78
2023/03/20 01:15:44;;;;;;;49.28;21.13;;;;;;;5.74;59.58;95426.13;5029783;28;20112;-79
2023/03/20 01:18:12;;;;;;;45.75;20.92;;;;;;;6.45;59.54;95532.69;5031377;28;20036;-78
2023/03/20 01:20:38;;;;;;;43.35;19.80;;;;;;;6.26;60.39;95518.13;5030621;28;20025;-78
2023/03/20 01:23:04;;;;;;;43.33;20.27;;;;;;;5.88;59.69;95446.91;5029874;28;20095;-77
2023/03/20 01:25:30;;;;;;;48.92;21.63;;;;;;;6.15;60.51;95504.00;5031305;28;20040;-77
2023/03/20 01:27:56;;;;;;;46.72;20.85;;;;;;;6.25;59.92;95521.03;5031307;28;20407;-77
2023/03/20 01:30:28;;;;;;;46.50;19.67;;;;;;;6.39;59.97;95530.22;5030315;28;20033;-78
2023/03/20 01:32:54;;;;;;;48.90;21.90;;;;;;;6.30;59.76;95515.84;5030693;28;20065;-78
2023/03/20 01:35:22;;;;;;;53.75;21.65;;;;;;;6.44;60.11;95532.94;5030274;28;20057;-78
2023/03/20 01:37:49;;;;;;;44.45;21.02;;;;;;;5.81;59.90;95429.41;5013016;28;20352;-78
2023/03/20 01:40:36;;;;;;;47.08;21.52;;;;;;;6.39;59.69;95538.13;5030036;28;20554;-78
2023/03/20 01:43:02;;;;;;;49.47;19.88;;;;;;;6.40;59.61;95539.72;5030896;28;20029;-78
2023/03/20 01:45:34;;;;;;;49.35;21.42;;;;;;;5.95;59.52;95477.31;5030400;28;20045;-78
2023/03/20 01:48:12;;;;;;;48.63;21.13;;;;;;;5.97;60.13;95482.34;5030421;28;20057;-78
2023/03/20 01:50:37;;;;;;;46.28;20.35;;;;;;;5.93;60.01;95483.88;5029878;28;20033;-78
2023/03/20 01:53:12;;;;;;;43.67;21.02;;;;;;;5.83;60.40;95479.19;5030599;28;20534;-78
2023/03/20 01:55:40;;;;;;;48.75;19.80;;;;;;;5.88;60.20;95489.81;5030493;28;20497;-78
2023/03/20 01:58:14;;;;;;;48.67;20.38;;;;;;;5.82;60.05;95494.19;5012622;28;20057;-78
2023/03/20 02:00:40;;;;;;;46.42;19.50;;;;;;;5.96;61.39;95549.19;5029392;28;20061;-78
2023/03/20 02:03:08;;;;;;;47.58;18.83;;;;;;;5.15;60.60;95413.47;5028329;28;20451;-79
2023/03/20 02:05:35;;;;;;;43.08;19.50;;;;;;;6.02;61.02;95538.53;5030380;28;20037;-79
2023/03/20 02:08:29;;;;;;;40.70;18.15;;;;;;;6.04;61.04;95540.91;5028741;28;20526;-79
2023/03/20 02:10:57;;;;;;;48.50;20.25;;;;;;;4.80;61.12;95343.41;5009245;28;20428;-79
2023/03/20 02:13:26;;;;;;;43.15;19.92;;;;;;;5.38;60.76;95435.22;5029722;28;20128;-79
2023/03/20 02:16:06;;;;;;;42.70;18.17;;;;;;;5.76;60.93;95500.38;5030295;28;20465;-77
2023/03/20 02:18:33;;;;;;;53.28;19.52;;;;;;;5.39;61.00;95446.53;5030023;28;20036;-77
2023/03/20 02:21:13;;;;;;;52.95;22.10;;;;;;;5.95;61.37;95531.81;5030362;28;20455;-77
2023/03/20 02:24:14;;;;;;;48.47;19.67;;;;;;;5.93;60.92;95537.31;5029921;28;20041;-78
2023/03/20 02:27:07;;;;;;;46.00;19.17;;;;;;;5.96;61.42;95536.03;5002807;28;20053;-77
2023/03/20 02:30:10;;;;;;;41.70;19.20;;;;;;;6.01;60.89;95538.78;5030070;28;20029;-77
2023/03/20 02:33:04;;;;;;;42.92;20.67;;;;;;;6.04;61.23;95540.91;5013167;28;20190;-78
2023/03/20 02:35:49;;;;;;;49.58;21.23;;;;;;;6.03;61.19;95540.13;5025491;28;20064;-77
2023/03/20 02:38:37;;;;;;;48.08;19.23;;;;;;;5.51;60.75;95457.00;5028803;28;20907;-78
2023/03/20 02:41:29;;;;;;;54.47;20.83;;;;;;;5.41;61.14;95458.44;5029938;28;20426;-77
2023/03/20 02:43:54;;;;;;;;;;;;;;;6.00;61.19;95531.91;5028478;28;20100;-78
2023/03/20 02:46:43;;;;;;;40.38;19.58;;;;;;;5.84;61.62;95530.78;5011949;28;19920;-78
2023/03/20 02:49:32;;;;;;;47.15;19.88;;;;;;;5.85;61.35;95528.97;5009221;28;20084;-78
2023/03/20 02:52:20;;;;;;;40.47;19.17;;;;;;;5.85;61.93;95523.69;5029941;28;20116;-77
2023/03/20 02:54:53;;;;;;;51.25;22.33;;;;;;;5.38;61.76;95468.59;5014996;28;20054;-77
2023/03/20 02:57:55;;;;;;;61.80;21.55;;;;;;;4.88;62.05;95390.31;5030103;28;20036;-77
2023/03/20 03:00:37;;;;;;;43.88;20.60;;;;;;;5.73;61.56;95519.28;5029471;28;20423;-77
2023/03/20 03:03:09;;;;;;;45.97;20.23;;;;;;;5.53;61.96;95510.19;5028500;28;20037;-78
2023/03/20 03:05:52;;;;;;;38.10;18.77;;;;;;;5.48;62.90;95510.91;5028842;28;20466;-77
2023/03/20 03:08:21;;;;;;;53.00;20.30;;;;;;;5.07;62.40;95448.00;5028125;28;20102;-78
2023/03/20 03:10:57;;;;;;;45.25;20.33;;;;;;;5.21;62.26;95465.09;5029604;28;20037;-77
2023/03/20 03:13:28;;;;;;;54.15;21.50;;;;;;;5.15;62.50;95451.06;5029495;28;20044;-77
2023/03/20 03:16:01;;;;;;;44.13;21.27;;;;;;;5.62;62.51;95525.38;5029536;28;20143;-77
2023/03/20 03:18:28;;;;;;;42.60;21.27;;;;;;;5.59;62.21;95528.47;5011639;28;20040;-78
2023/03/20 03:20:59;;;;;;;51.35;20.73;;;;;;;5.56;62.35;95526.31;5029751;28;20480;-78
2023/03/20 03:23:31;;;;;;;52.17;21.10;;;;;;;5.44;62.73;95497.41;5028029;28;20045;-78
2023/03/20 03:26:02;;;;;;;46.72;21.70;;;;;;;5.60;62.53;95524.00;5028927;28;20055;-78
2023/03/20 03:28:39;;;;;;;47.08;22.33;;;;;;;5.59;62.66;95527.66;5029533;28;20037;-78
2023/03/20 03:31:08;;;;;;;67.40;22.10;;;;;;;5.22;62.47;95462.25;5013460;28;20038;-78
2023/03/20 03:33:37;;;;;;;60.67;22.00;;;;;;;5.22;62.24;95478.03;5015738;28;20108;-78
2023/03/20 03:36:33;;;;;;;51.75;21.65;;;;;;;5.60;63.00;95527.44;5031001;28;20057;-78
2023/03/20 03:39:05;;;;;;;63.03;22.27;;;;;;;5.63;62.39;95528.81;5031989;28;20041;-77
2023/03/20 03:41:39;;;;;;;;;;;;;;;5.63;62.17;95527.00;5032395;28;20075;-78
2023/03/20 03:44:07;;;;;;;67.22;23.35;;;;;;;5.23;62.97;95473.56;5031766;28;19978;-77
2023/03/20 03:46:53;;;;;;;58.08;24.70;;;;;;;5.55;62.88;95526.56;5032423;28;20048;-78
2023/03/20 03:49:26;;;;;;;55.22;21.88;;;;;;;5.29;63.23;95496.31;5032773;28;20596;-77
2023/03/20 03:51:56;;;;;;;55.35;24.30;;;;;;;5.47;62.41;95524.28;5033218;28;20116;-77
2023/03/20 03:54:29;;;;;;;61.10;23.02;;;;;;;5.18;62.59;95479.53;5031602;28;20029;-77
2023/03/20 03:56:57;;;;;;;51.17;22.70;;;;;;;4.95;62.80;95477.75;5014213;28;20037;-77
2023/03/20 03:59:39;;;;;;;51.70;23.77;;;;;;;4.14;63.31;95347.28;5032883;28;20034;-77
2023/03/20 04:02:07;;;;;;;54.70;24.85;;;;;;;4.11;63.16;95353.00;5032771;28;20057;-77
2023/03/20 04:04:36;;;;;;;69.50;26.48;;;;;;;4.87;63.98;95496.50;5031519;28;20045;-77
2023/03/20 04:07:01;;;;;;;53.63;24.77;;;;;;;5.07;63.94;95518.97;5032183;28;20029;-77
2023/03/20 04:09:27;;;;;;;53.65;24.38;;;;;;;4.29;65.61;95459.69;5032874;28;20041;-77
2023/03/20 04:11:53;;;;;;;54.65;25.27;;;;;;;4.77;65.40;95519.09;5032618;28;20033;-77
2023/03/20 04:14:19;;;;;;;61.35;26.70;;;;;;;4.75;65.11;95513.28;5032410;28;20094;-77
2023/03/20 04:16:45;;;;;;;75.55;28.40;;;;;;;4.84;65.12;95510.06;5032423;28;20033;-77
2023/03/20 04:19:11;;;;;;;63.80;26.10;;;;;;;4.22;64.98;95420.44;5032132;28;20042;-77
2023/03/20 04:21:36;;;;;;;67.18;28.00;;;;;;;4.41;65.20;95436.88;5014769;28;20029;-77
2023/03/20 04:24:02;;;;;;;55.00;25.67;;;;;;;4.37;65.18;95438.34;5032494;28;20064;-78
2023/03/20 04:26:27;;;;;;;64.82;25.95;;;;;;;4.27;65.28;95435.50;5030680;28;20033;-77
2023/03/20 04:28:53;;;;;;;58.53;25.75;;;;;;;3.98;65.35;95389.94;5030594;28;20485;-77
2023/03/20 04:31:19;;;;;;;65.15;26.95;;;;;;;4.77;65.19;95505.97;5032364;28;20077;-77
2023/03/20 04:33:45;;;;;;;54.63;23.50;;;;;;;3.73;65.28;95370.97;5032674;28;20116;-78
2023/03/20 04:36:11;;;;;;;59.75;24.45;;;;;;;4.74;65.65;95516.94;5031676;28;20049;-78
2023/03/20 04:38:36;;;;;;;67.50;25.77;;;;;;;4.62;65.73;95493.28;5030580;28;20400;-77
2023/03/20 04:41:03;;;;;;;58.70;24.80;;;;;;;4.88;65.40;95513.84;5013663;28;20030;-78
2023/03/20 04:43:28;;;;;;;59.47;25.33;;;;;;;4.93;65.49;95518.41;5030878;28;20057;-78
2023/03/20 04:45:54;;;;;;;63.13;27.05;;;;;;;5.03;65.34;95516.03;5032034;28;20582;-77
2023/03/20 04:48:19;;;;;;;70.90;28.30;;;;;;;5.11;65.50;95531.41;5031755;28;20121;-78
2023/03/20 04:50:49;;;;;;;71.63;31.30;;;;;;;5.13;64.58;95521.47;5032323;28;20038;-78
2023/03/20 04:53:16;;;;;;;81.22;32.50;;;;;;;4.52;64.65;95422.13;5031889;28;20030;-78
2023/03/20 04:55:42;;;;;;;69.68;28.48;;;;;;;5.14;64.16;95514.38;5031701;28;20128;-78
2023/03/20 04:58:08;;;;;;;81.13;30.42;;;;;;;5.00;63.70;95491.00;5013639;28;20045;-78
2023/03/20 05:00:33;;;;;;;71.65;29.60;;;;;;;5.38;63.23;95534.38;5029123;28;20025;-78
2023/03/20 05:02:59;;;;;;;64.53;28.73;;;;;;;5.08;62.77;95478.50;5013250;28;20041;-78
2023/03/20 05:05:24;;;;;;;79.47;28.13;;;;;;;4.18;63.04;95322.19;5030909;28;20037;-77
2023/03/20 05:07:50;;;;;;;66.30;27.35;;;;;;;4.96;62.66;95439.91;5029762;28;20041;-78
2023/03/20 05:10:16;;;;;;;69.15;25.90;;;;;;;5.62;62.54;95543.81;5025072;28;20103;-78
2023/03/20 05:12:42;;;;;;;48.78;22.80;;;;;;;5.09;62.63;95461.72;5028215;28;20076;-78
2023/03/20 05:15:07;;;;;;;52.20;24.67;;;;;;;5.08;62.20;95447.78;5026620;28;20411;-78
2023/03/20 05:17:33;;;;;;;67.03;24.25;;;;;;;5.49;62.77;95504.63;5015653;28;20029;-78
2023/03/20 05:19:58;;;;;;;71.15;25.25;;;;;;;5.43;62.52;95500.25;5025912;28;20088;-78
2023/03/20 05:22:24;;;;;;;56.95;24.65;;;;;;;5.76;62.66;95549.59;5018931;28;20033;-78
2023/03/20 05:24:50;;;;;;;69.60;25.10;;;;;;;5.34;62.51;95475.38;5020242;28;20102;-78
2023/03/20 05:27:15;;;;;;;67.85;28.05;;;;;;;5.58;62.25;95526.06;5001324;28;20045;-78
2023/03/20 05:29:41;;;;;;;68.95;27.80;;;;;;;5.08;62.41;95452.22;5003051;28;20132;-77
2023/03/20 05:32:06;;;;;;;67.55;27.48;;;;;;;5.02;61.57;95409.28;5017922;28;20029;-77
2023/03/20 05:34:32;;;;;;;70.68;28.08;;;;;;;5.97;61.32;95551.59;5020888;28;20064;-77
2023/03/20 05:36:57;;;;;;;72.28;29.25;;;;;;;5.72;62.68;95554.50;5025107;28;20037;-77
2023/03/20 05:39:23;;;;;;;69.07;28.50;;;;;;;5.89;61.53;95557.22;5022069;28;20503;-77
2023/03/20 05:41:48;;;;;;;72.88;29.80;;;;;;;5.60;61.54;95490.59;5021296;28;20573;-77
2023/03/20 05:44:14;;;;;;;71.60;29.95;;;;;;;6.06;61.14;95559.91;5026404;28;20076;-77
2023/03/20 05:46:39;;;;;;;67.82;29.02;;;;;;;6.12;61.15;95553.72;5026430;28;20037;-77
2023/03/20 05:49:05;;;;;;;70.80;29.08;;;;;;;5.51;61.20;95441.22;5005116;28;20068;-77
2023/03/20 05:51:30;;;;;;;72.85;30.50;;;;;;;6.00;61.26;95521.38;5024595;28;20038;-77
2023/03/20 05:53:56;;;;;;;76.10;32.50;;;;;;;5.79;61.42;95486.78;5021907;28;20159;-78
2023/03/20 05:56:22;;;;;;;86.07;34.65;;;;;;;5.91;60.87;95488.56;5022535;28;20037;-77
2023/03/20 05:58:47;;;;;;;96.65;35.13;;;;;;;5.60;61.06;95424.84;5004337;28;20029;-79
2023/03/20 06:01:15;;;;;;;96.45;33.22;;;;;;;6.56;60.84;95566.06;5017661;28;20114;-78
2023/03/20 06:03:41;;;;;;;70.32;30.65;;;;;;;5.89;60.78;95459.03;5018781;28;20578;-78
2023/03/20 06:06:06;;;;;;;67.80;26.52;;;;;;;6.15;61.03;95490.84;5002270;28;20029;-80
2023/03/20 06:08:32;;;;;;;62.55;26.38;;;;;;;6.61;60.38;95561.94;5024594;28;20099;-79
2023/03/20 06:10:57;;;;;;;65.18;27.13;;;;;;;5.97;59.84;95448.94;5006058;28;20500;-77
2023/03/20 06:13:23;;;;;;;70.93;26.80;;;;;;;5.67;59.82;95395.75;5011489;28;20033;-80
2023/03/20 06:15:48;;;;;;;71.07;26.60;;;;;;;5.80;59.71;95412.03;5019632;28;20033;-80
2023/03/20 06:18:14;;;;;;;81.65;27.85;;;;;;;6.53;60.06;95503.31;5020751;28;20037;-82
2023/03/20 06:20:39;;;;;;;82.32;31.50;;;;;;;6.85;59.88;95574.72;5015299;28;20514;-79
2023/03/20 06:23:05;;;;;;;95.00;38.45;;;;;;;6.17;59.79;95459.81;5014677;28;20115;-77
2023/03/20 06:25:30;;;;;;;76.97;34.47;;;;;;;6.31;59.93;95491.09;5018694;28;20124;-77
2023/03/20 06:27:56;;;;;;;92.28;34.95;;;;;;;5.75;59.58;95375.09;5020329;28;20033;-77
2023/03/20 06:30:22;;;;;;;95.22;34.80;;;;;;;6.42;59.20;95490.22;5019738;28;20538;-77
2023/03/20 06:32:47;;;;;;;76.45;35.22;;;;;;;6.78;58.84;95536.38;5021197;28;20080;-78
2023/03/20 06:35:13;;;;;;;94.72;37.35;;;;;;;6.40;58.64;95452.78;5020243;28;20646;-77
2023/03/20 06:37:39;;;;;;;98.63;38.42;;;;;;;7.13;58.88;95570.38;5017423;28;20037;-77
2023/03/20 06:40:06;;;;;;;86.95;38.00;;;;;;;6.98;58.64;95536.66;5001901;28;20414;-78
2023/03/20 06:42:31;;;;;;;88.10;36.30;;;;;;;6.70;58.62;95499.88;5015771;28;20424;-79
2023/03/20 06:44:56;;;;;;;93.07;38.15;;;;;;;7.07;58.50;95544.97;5019064;28;20095;-77
2023/03/20 06:47:22;;;;;;;80.10;36.08;;;;;;;6.02;58.76;95377.16;5001182;28;20040;-79
2023/03/20 06:49:48;;;;;;;84.75;36.33;;;;;;;7.31;58.89;95568.28;5019667;28;20048;-78
2023/03/20 06:52:20;;;;;;;92.47;37.00;;;;;;;6.78;58.65;95497.63;5002401;28;20029;-77
2023/03/20 06:54:46;;;;;;;85.63;37.53;;;;;;;7.15;58.81;95534.81;5018001;28;20037;-78
2023/03/20 06:57:11;;;;;;;74.65;34.38;;;;;;;6.95;58.33;95477.31;5017387;28;20103;-80
2023/03/20 06:59:36;;;;;;;86.20;34.90;;;;;;;6.41;58.11;95381.41;5019082;28;20025;-77
2023/03/20 07:02:03;;;;;;;81.82;35.80;;;;;;;7.51;58.23;95551.09;4992150;28;20328;-76
2023/03/20 07:04:28;;;;;;;89.35;35.58;;;;;;;7.49;58.25;95516.25;5011369;28;20995;-76
2023/03/20 07:06:54;;;;;;;80.45;37.92;;;;;;;7.32;57.98;95474.88;5016729;28;20045;-76
2023/03/20 07:09:21;;;;;;;98.28;37.80;;;;;;;7.57;57.69;95503.41;5021431;28;20053;-77
2023/03/20 07:11:46;;;;;;;108.97;37.40;;;;;;;7.37;57.65;95460.97;5001358;28;20130;-78
2023/03/20 07:14:15;;;;;;;86.38;36.50;;;;;;;7.62;57.62;95477.09;5021599;28;20579;-76
2023/03/20 07:16:45;;;;;;;103.75;36.78;;;;;;;7.02;57.04;95374.28;5020966;28;20482;-78
2023/03/20 07:19:12;;;;;;;91.68;34.35;;;;;;;8.00;56.89;95544.84;5020242;28;20033;-79
2023/03/20 07:21:37;;;;;;;70.95;32.92;;;;;;;8.16;56.89;95540.50;5023466;28;20037;-80
2023/03/20 07:24:03;;;;;;;89.50;34.33;;;;;;;8.10;56.07;95509.78;5003711;28;20092;-78
2023/03/20 07:26:29;;;;;;;91.10;35.17;;;;;;;7.40;55.90;95372.59;5023493;28;20033;-77
2023/03/20 07:28:54;;;;;;;82.95;34.95;;;;;;;7.91;56.14;95447.81;5018011;28;20465;-79
2023/03/20 07:31:25;;;;;;;86.38;34.95;;;;;;;8.62;55.77;95541.72;5022251;28;20036;-78
2023/03/20 07:33:50;;;;;;;76.32;32.90;;;;;;;8.31;55.29;95469.34;5004818;28;20095;-79
2023/03/20 07:36:16;;;;;;;69.45;30.00;;;;;;;7.98;55.12;95422.78;5023688;28;20053;-79
2023/03/20 07:38:41;;;;;;;63.72;30.33;;;;;;;8.04;54.91;95410.41;5006209;28;20026;-78
2023/03/20 07:41:07;;;;;;;66.35;33.30;;;;;;;8.36;55.85;95476.50;5008509;28;20561;-77
2023/03/20 07:43:33;;;;;;;70.20;31.65;;;;;;;8.74;55.67;95546.88;5022528;28;20436;-78
2023/03/20 07:46:03;;;;;;;64.68;30.85;;;;;;;8.74;55.59;95542.38;5005361;28;20192;-79
2023/03/20 07:48:28;;;;;;;68.88;28.58;;;;;;;8.43;55.14;95483.19;5022948;28;20517;-79
2023/03/20 07:50:54;;;;;;;46.75;21.70;;;;;;;8.28;55.07;95472.44;5021243;28;20030;-79
2023/03/20 07:53:21;;;;;;;44.78;23.63;;;;;;;7.65;54.94;95375.47;5016450;28;20055;-82
2023/03/20 07:55:46;;;;;;;61.58;28.38;;;;;;;8.46;55.99;95511.75;5018690;28;20025;-80
2023/03/20 07:58:15;;;;;;;69.85;29.35;;;;;;;8.33;55.89;95488.38;5011930;28;20427;-80
2023/03/20 08:00:57;;;;;;;64.53;27.42;;;;;;;8.37;55.07;95481.53;5025649;28;20688;-81
2023/03/20 08:03:24;;;;;;;58.38;26.45;;;;;;;8.23;54.94;95447.84;5023902;28;20037;-82
2023/03/20 08:05:50;;;;;;;50.55;22.95;;;;;;;8.67;54.64;95464.31;5025936;28;20105;-81
2023/03/20 08:08:15;;;;;;;53.97;24.58;;;;;;;8.67;54.10;95472.25;5006059;28;20037;-83
2023/03/20 08:10:40;;;;;;;41.83;20.33;;;;;;;9.30;54.16;95542.78;5004445;28;20507;-77
2023/03/20 08:13:06;;;;;;;50.00;21.85;;;;;;;8.39;54.03;95402.03;5018324;28;20037;-77
2023/03/20 08:15:31;;;;;;;48.03;24.05;;;;;;;9.34;54.12;95533.25;5018526;28;20041;-77
2023/03/20 08:17:58;;;;;;;48.25;22.73;;;;;;;8.98;53.60;95489.13;4999995;28;20041;-80
2023/03/20 08:20:24;;;;;;;48.83;21.42;;;;;;;8.86;53.98;95468.94;5001018;28;20025;-79
2023/03/20 08:22:49;;;;;;;49.00;20.75;;;;;;;8.58;54.00;95412.97;5021241;28;20044;-78
2023/03/20 08:25:15;;;;;;;44.85;19.58;;;;;;;9.19;53.36;95496.91;5022189;28;20457;-77
2023/03/20 08:27:41;;;;;;;44.65;19.83;;;;;;;9.28;53.14;95481.34;4998763;28;20439;-78
2023/03/20 08:30:08;;;;;;;37.30;20.45;;;;;;;9.53;53.27;95537.06;5017338;28;20041;-78
2023/03/20 08:32:34;;;;;;;43.78;20.77;;;;;;;9.11;53.10;95483.38;5016812;28;20041;-80
2023/03/20 08:35:00;;;;;;;38.80;18.15;;;;;;;8.79;53.07;95417.31;5022130;28;20057;-79
2023/03/20 08:37:27;;;;;;;28.77;17.00;;;;;;;9.18;52.97;95468.84;5005043;28;20068;-78
2023/03/20 08:39:52;;;;;;;43.55;17.05;;;;;;;8.99;52.90;95400.78;5006296;28;20026;-78
2023/03/20 08:42:18;;;;;;;43.42;17.50;;;;;;;9.49;53.23;95503.41;5018053;28;20419;-78
2023/03/20 08:44:44;;;;;;;41.20;18.38;;;;;;;9.11;53.58;95435.75;5004860;28;20126;-78
2023/03/20 08:47:10;;;;;;;35.30;14.80;;;;;;;9.85;53.14;95541.41;5021268;28;20037;-79
2023/03/20 08:49:36;;;;;;;33.33;15.05;;;;;;;9.78;52.59;95536.34;5018688;28;20493;-77
2023/03/20 08:52:02;;;;;;;25.83;12.35;;;;;;;9.11;52.87;95451.63;5010960;28;20045;-78
2023/03/20 08:54:28;;;;;;;32.35;13.98;;;;;;;9.31;52.58;95459.66;5007713;28;20821;-78
2023/03/20 08:56:53;;;;;;;28.83;11.63;;;;;;;9.16;52.06;95435.75;5014573;28;20085;-79
2023/03/20 08:59:19;;;;;;;25.63;11.15;;;;;;;8.67;51.92;95334.78;5019007;28;20041;-81
2023/03/20 09:01:45;;;;;;;29.17;13.73;;;;;;;9.54;52.08;95471.66;5011277;28;20029;-76
2023/03/20 09:04:12;;;;;;;32.97;13.35;;;;;;;9.60;52.00;95462.69;5012452;28;20060;-76
2023/03/20 09:06:40;;;;;;;31.70;13.35;;;;;;;10.09;51.60;95531.97;4999517;28;20037;-76
2023/03/20 09:09:09;;;;;;;24.38;13.32;;;;;;;10.26;51.67;95521.97;5016385;28;20045;-75
2023/03/20 09:11:35;;;;;;;32.75;13.77;;;;;;;10.12;51.10;95477.66;4993823;28;20416;-75
2023/03/20 09:14:00;;;;;;;24.30;13.82;;;;;;;9.75;51.04;95441.56;5011588;28;20037;-75
2023/03/20 09:16:26;;;;;;;30.13;14.38;;;;;;;10.14;50.83;95481.63;5017643;28;20029;-76
2023/03/20 09:18:52;;;;;;;26.90;13.55;;;;;;;9.96;50.44;95432.56;5015817;28;20064;-76
2023/03/20 09:21:17;;;;;;;27.52;13.23;;;;;;;10.53;51.19;95505.81;5013193;28;20029;-76
2023/03/20 09:23:43;;;;;;;30.02;13.50;;;;;;;10.08;50.12;95448.22;5014444;28;20025;-75
2023/03/20 09:26:08;;;;;;;37.00;15.07;;;;;;;9.84;50.61;95397.56;5013614;28;20033;-75
2023/03/20 09:28:34;;;;;;;29.33;13.60;;;;;;;10.44;50.01;95459.69;5013374;28;20472;-75
2023/03/20 09:31:00;;;;;;;25.75;13.15;;;;;;;10.26;49.30;95407.19;4995951;28;20041;-76
2023/03/20 09:33:25;;;;;;;24.92;14.48;;;;;;;10.86;49.23;95491.22;5015680;28;20029;-76
2023/03/20 09:35:51;;;;;;;36.22;15.43;;;;;;;10.99;49.44;95495.97;5000630;28;20056;-76
2023/03/20 09:38:16;;;;;;;28.92;14.40;;;;;;;10.63;49.24;95423.59;4997746;28;20033;-75
2023/03/20 09:41:01;;;;;;;31.45;13.98;;;;;;;11.11;49.11;95479.78;5012465;28;20033;-80
2023/03/20 09:43:45;;;;;;;27.35;14.27;;;;;;;11.20;49.28;95478.16;5016922;28;20041;-77
2023/03/20 09:46:36;;;;;;;37.10;15.60;;;;;;;11.11;51.86;95439.94;5012082;28;20840;-78
2023/03/20 09:49:16;;;;;;;36.67;15.43;;;;;;;10.87;51.07;95381.38;5014228;28;20190;-80
2023/03/20 09:52:10;;;;;;;28.48;13.73;;;;;;;10.96;48.67;95357.72;4998201;28;20034;-78
2023/03/20 09:54:39;;;;;;;30.02;14.88;;;;;;;11.58;48.00;95444.84;4995958;28;20029;-79
2023/03/20 09:57:06;;;;;;;29.25;14.30;;;;;;;11.31;47.56;95370.84;5001863;28;20221;-77
2023/03/20 09:59:35;;;;;;;38.25;15.18;;;;;;;11.51;47.63;95373.41;5001737;28;20040;-83
2023/03/20 10:02:12;;;;;;;33.17;16.02;;;;;;;11.48;49.16;95341.28;4993791;28;20107;-80
2023/03/20 10:04:39;;;;;;;28.83;15.40;;;;;;;11.95;47.38;95381.41;5017030;28;20065;-82
2023/03/20 10:07:05;;;;;;;47.63;16.80;;;;;;;12.04;47.09;95352.38;5000189;28;20061;-78
2023/03/20 10:09:31;;;;;;;36.42;15.70;;;;;;;12.47;47.86;95377.25;5017475;28;20523;-80
2023/03/20 10:12:33;;;;;;;28.73;15.57;;;;;;;13.23;46.40;95408.44;5018120;28;20506;-78
2023/03/20 10:15:13;;;;;;;28.27;14.48;;;;;;;14.26;44.76;95406.78;5017741;28;20921;-81
2023/03/20 10:18:04;;;;;;;28.58;14.15;;;;;;;15.15;41.91;95369.22;5016270;28;20040;-79
2023/03/20 10:20:35;;;;;;;32.35;15.18;;;;;;;16.66;40.42;95407.09;5018641;28;20042;-78
2023/03/20 10:23:22;;;;;;;;;;;;;;;17.38;37.80;95394.22;5000614;28;20037;-79
2023/03/20 10:25:57;;;;;;;26.50;13.40;;;;;;;18.16;36.08;95329.97;4984851;28;19921;-80
2023/03/20 10:28:35;;;;;;;27.95;13.75;;;;;;;19.13;33.86;95379.38;5014003;28;20033;-78
2023/03/20 10:31:31;;;;;;;29.42;13.60;;;;;;;20.07;32.38;95396.13;5011998;28;20042;-80
2023/03/20 10:34:25;;;;;;;28.58;13.82;;;;;;;20.30;30.70;95324.66;5006731;28;20041;-81
2023/03/20 10:37:16;;;;;;;30.92;13.98;;;;;;;20.30;30.70;95324.66;5005735;28;20052;-78
2023/03/20 10:39:49;;;;;;;24.35;12.95;;;;;;;21.68;28.57;95382.44;5002174;28;20035;-81
2023/03/20 10:42:27;;;;;;;27.42;14.32;;;;;;;21.10;28.70;95307.00;5018578;28;20134;-79
2023/03/20 10:45:01;;;;;;;31.77;13.57;;;;;;;21.92;28.19;95377.81;5017635;28;20659;-81
2023/03/20 10:47:32;;;;;;;29.40;13.43;;;;;;;21.69;27.71;95267.94;5021128;28;20491;-81
2023/03/20 10:50:15;;;;;;;32.22;14.13;;;;;;;22.00;27.84;95311.31;5021835;28;20578;-81
2023/03/20 10:52:41;;;;;;;34.63;13.75;;;;;;;21.45;27.22;95183.25;5020072;28;20829;-80
2023/03/20 10:55:14;;;;;;;33.60;13.50;;;;;;;22.58;27.22;95353.06;5013686;28;20103;-80
2023/03/20 10:57:46;;;;;;;26.50;12.52;;;;;;;22.25;26.26;95285.00;5004615;28;20120;-80
2023/03/20 11:00:21;;;;;;;24.13;12.77;;;;;;;22.93;26.70;95349.78;5017437;28;20148;-80
2023/03/20 11:02:46;;;;;;;28.10;14.15;;;;;;;22.28;27.04;95247.28;4999528;28;20083;-80
2023/03/20 11:05:28;;;;;;;32.10;14.35;;;;;;;22.92;27.04;95343.56;4997203;28;20095;-81
2023/03/20 11:08:07;;;;;;;30.42;13.13;;;;;;;22.47;27.18;95219.59;5015509;28;20041;-82
2023/03/20 11:10:35;;;;;;;26.30;12.77;;;;;;;22.47;27.18;95219.59;5016582;28;20128;-84
2023/03/20 11:13:24;;;;;;;28.58;13.20;;;;;;;23.69;25.65;95335.00;5015222;28;20044;-79
2023/03/20 11:15:52;;;;;;;22.77;12.40;;;;;;;23.70;25.22;95325.75;5007948;28;20044;-77
2023/03/20 11:18:24;;;;;;;36.50;14.13;;;;;;;22.81;25.54;95191.09;5001690;28;20034;-79
2023/03/20 11:20:53;;;;;;;27.77;12.32;;;;;;;23.05;24.62;95223.34;4991439;28;20042;-79
2023/03/20 11:23:31;;;;;;;25.70;12.02;;;;;;;23.62;23.89;95313.19;5006732;28;20040;-80
2023/03/20 11:26:03;;;;;;;25.98;11.68;;;;;;;23.99;23.54;95313.59;5017450;28;20762;-80
2023/03/20 11:28:36;;;;;;;24.88;11.85;;;;;;;23.73;23.20;95289.81;5003387;28;20045;-80
2023/03/20 11:31:18;;;;;;;24.15;11.65;;;;;;;24.13;23.82;95306.53;5010225;28;20051;-80
2023/03/20 11:34:10;;;;;;;24.75;11.55;;;;;;;24.15;22.91;95298.06;5010697;28;20106;-79
2023/03/20 11:36:36;;;;;;;;;;;;;;;24.05;22.46;95287.78;5007456;28;20551;-79
2023/03/20 11:39:13;;;;;;;18.98;9.88;;;;;;;23.45;22.51;95204.13;5015238;28;20552;-80